Boiling Springs, North Carolina
Current Conditions -  °F | °C
As of 9:35 AM on Tuesday 21 Oct 2014 (Local Time) from KEHO Reporting Station
Clear Clear  
Wind Chill: 53°   Ceiling: Unl
Heat Index: 53°   Visibility: 10mi
Dew Point: 50°   Wind: 0mph
Humidity: 91%   Direction: NA
Pressure: 29.97"   Gusts: NA
Location:  35.25°N, 81.67°W
Report Text: KEHO 211335Z AUTO 00000KT 10SM CLR 12/10 A2997 RMK AO2 T01160101
Loading
Personal Weather Stations






























Interactive Weather Map
Tropical Storm Tracking
New forecast layout! Learn more

10-Day Weather Forecast

Advertisements
Track Severe Weather on mobile